Corona, New York
Current Conditions -  °F | °C
As of 12:51 PM on Thursday 25 Dec 2014 (Local Time) from KLGA Reporting Station
Broken Clouds Broken Clouds  
Wind Chill: 52°   Ceiling: 6000
Heat Index: 52°   Visibility: 10mi
Dew Point: 28°   Wind: 20mph
Humidity: 40%   Direction: 290°WNW
Pressure: 29.78"   Gusts: 32mph
Location:  40.75°N, 73.86°W
Report Text: KLGA 251751Z 29017G28KT 10SM FEW055 BKN060 BKN170 11/M02 A2978 RMK AO2 PK WND 29031/1730 SLP085 60000 T01111022 10117 20094 53022
Loading
Personal Weather Stations






























Interactive Weather Map New forecast layout! Learn more

10-Day Weather Forecast

Advertisements
Track Severe Weather on mobile